Time;durP1;ratioP1;P1;durP2;ratioP2;P2;SDS_P1;SDS_P2;PMS_P1;PMS_P2;Temp;Humidity;BMP_temperature;BMP_pressure;BME280_temperature;BME280_humidity;BME280_pressure;Samples;Min_cycle;Max_cycle;Signal;HPM_P1;HPM_P2
2022/11/25 00:01:17;;;;;;;18.80;3.63;;;7.30;99.90;;;;;;5062819;28;20473;-81
2022/11/25 00:03:44;;;;;;;27.15;4.00;;;7.30;99.90;;;;;;5055336;28;20393;-81
2022/11/25 00:06:13;;;;;;;32.38;3.78;;;7.30;99.90;;;;;;5057002;28;20107;-81
2022/11/25 00:08:40;;;;;;;20.52;5.05;;;7.30;99.90;;;;;;5056236;28;20029;-81
2022/11/25 00:11:07;;;;;;;18.08;3.53;;;7.30;99.90;;;;;;5059958;28;20393;-80
2022/11/25 00:13:34;;;;;;;18.42;3.45;;;7.30;99.90;;;;;;5057988;28;20113;-80
2022/11/25 00:16:20;;;;;;;31.20;5.60;;;7.30;99.90;;;;;;5055822;28;20465;-81
2022/11/25 00:18:51;;;;;;;34.42;4.30;;;7.30;99.90;;;;;;5061517;28;20471;-79
2022/11/25 00:21:23;;;;;;;20.75;4.78;;;7.30;99.90;;;;;;5058714;28;20370;-81
2022/11/25 00:23:53;;;;;;;13.27;4.05;;;7.30;99.90;;;;;;5055973;28;20024;-81
2022/11/25 00:26:20;;;;;;;22.45;4.68;;;7.30;99.90;;;;;;5058602;28;20033;-80
2022/11/25 00:28:46;;;;;;;20.58;3.83;;;7.30;99.90;;;;;;5056013;28;20033;-80
2022/11/25 00:31:15;;;;;;;11.68;3.45;;;7.20;99.90;;;;;;5058498;28;20550;-81
2022/11/25 00:33:42;;;;;;;15.60;3.03;;;7.10;99.90;;;;;;5053728;28;20032;-81
2022/11/25 00:36:23;;;;;;;10.82;3.03;;;7.00;99.90;;;;;;5057208;28;20385;-80
2022/11/25 00:38:58;;;;;;;9.48;2.53;;;7.00;99.90;;;;;;5057734;28;20040;-81
2022/11/25 00:46:58;;;;;;;12.60;2.45;;;6.80;99.90;;;;;;5057348;28;20130;-80
2022/11/25 00:49:24;;;;;;;13.10;2.55;;;6.70;99.90;;;;;;5061946;28;20021;-80
2022/11/25 00:51:50;;;;;;;8.13;2.72;;;6.70;99.90;;;;;;5055164;28;20048;-81
2022/11/25 00:54:16;;;;;;;19.15;3.78;;;6.60;99.90;;;;;;5058493;28;20112;-80
2022/11/25 00:56:41;;;;;;;8.20;2.65;;;6.50;99.90;;;;;;5060249;28;20112;-81
2022/11/25 00:59:07;;;;;;;17.45;3.28;;;6.50;99.90;;;;;;5056569;28;20107;-81
2022/11/25 01:01:34;;;;;;;11.52;2.95;;;6.40;99.90;;;;;;5058407;28;20359;-81
2022/11/25 01:03:59;;;;;;;11.95;2.85;;;6.30;99.90;;;;;;5053723;28;20025;-80
2022/11/25 01:06:25;;;;;;;11.35;2.38;;;6.20;99.90;;;;;;5056105;28;20037;-80
2022/11/25 01:08:51;;;;;;;15.05;3.38;;;6.10;99.90;;;;;;5054999;28;20031;-81
2022/11/25 01:11:20;;;;;;;5.70;2.40;;;6.10;99.90;;;;;;5058023;28;20032;-81
2022/11/25 01:13:45;;;;;;;8.23;2.15;;;6.00;99.90;;;;;;5061417;28;20021;-81
2022/11/25 01:16:14;;;;;;;12.93;2.47;;;5.90;99.90;;;;;;5061993;28;20082;-80
2022/11/25 01:18:41;;;;;;;9.02;2.33;;;5.80;99.90;;;;;;5058976;28;20036;-80
2022/11/25 01:21:09;;;;;;;8.95;4.05;;;5.80;99.90;;;;;;5055297;28;20091;-81
2022/11/25 01:23:35;;;;;;;12.32;3.45;;;5.60;99.90;;;;;;5057507;28;20021;-81
2022/11/25 01:26:06;;;;;;;13.82;2.83;;;5.60;99.90;;;;;;5052355;28;20051;-80
2022/11/25 01:28:32;;;;;;;7.97;2.38;;;5.60;99.90;;;;;;5058186;28;20032;-81
2022/11/25 01:31:10;;;;;;;8.02;2.25;;;5.50;99.90;;;;;;5058398;28;20154;-81
2022/11/25 01:33:36;;;;;;;7.13;1.92;;;5.40;99.90;;;;;;5059425;28;20059;-81
2022/11/25 01:36:09;;;;;;;4.78;2.08;;;5.40;99.90;;;;;;5061318;28;20135;-80
2022/11/25 01:38:35;;;;;;;12.85;2.60;;;5.40;99.90;;;;;;5061058;28;20515;-81
2022/11/25 01:41:02;;;;;;;7.85;2.88;;;5.30;99.90;;;;;;5055363;28;20036;-81
2022/11/25 01:43:28;;;;;;;8.27;2.65;;;5.20;99.90;;;;;;5060018;28;20122;-80
2022/11/25 01:46:00;;;;;;;8.32;2.80;;;5.20;99.90;;;;;;5055462;28;20400;-80
2022/11/25 01:48:32;;;;;;;6.10;2.40;;;5.10;99.90;;;;;;5059147;28;20136;-80
2022/11/25 01:50:58;;;;;;;12.48;3.25;;;5.10;99.90;;;;;;5055919;28;20514;-80
2022/11/25 01:53:24;;;;;;;9.82;2.28;;;5.00;99.90;;;;;;5063758;28;20028;-80
2022/11/25 01:55:55;;;;;;;11.52;2.42;;;5.00;99.90;;;;;;5057717;28;20032;-79
2022/11/25 01:58:28;;;;;;;7.15;2.60;;;4.90;99.90;;;;;;5057198;28;20409;-80
2022/11/25 02:00:54;;;;;;;10.30;2.47;;;4.80;99.90;;;;;;5059641;28;20121;-80
2022/11/25 02:03:28;;;;;;;11.77;2.97;;;4.80;99.90;;;;;;5052541;28;20242;-80
2022/11/25 02:06:05;;;;;;;14.13;3.10;;;4.80;99.90;;;;;;5057002;28;20485;-80
2022/11/25 02:08:32;;;;;;;8.63;2.47;;;4.70;99.90;;;;;;5053495;28;20465;-80
2022/11/25 02:11:00;;;;;;;6.85;2.55;;;4.70;99.90;;;;;;5059664;28;20024;-80
2022/11/25 02:13:27;;;;;;;12.85;2.30;;;4.70;99.90;;;;;;5060982;28;20031;-80
2022/11/25 02:15:53;;;;;;;15.50;3.00;;;4.70;99.90;;;;;;5057512;28;20094;-80
2022/11/25 02:18:18;;;;;;;7.13;2.47;;;4.70;99.90;;;;;;5057609;28;20040;-80
2022/11/25 02:20:44;;;;;;;15.32;3.63;;;4.60;99.90;;;;;;5063627;28;20094;-80
2022/11/25 02:23:31;;;;;;;7.82;2.28;;;4.60;99.90;;;;;;5061181;28;20025;-79
2022/11/25 02:25:57;;;;;;;7.07;2.70;;;4.60;99.90;;;;;;5064067;28;20388;-81
2022/11/25 02:28:26;;;;;;;9.05;2.55;;;4.50;99.90;;;;;;5063072;28;20033;-80
2022/11/25 02:30:52;;;;;;;8.23;2.72;;;4.50;99.90;;;;;;5067586;28;20482;-81
2022/11/25 02:33:19;;;;;;;4.25;2.30;;;4.50;99.90;;;;;;5062074;28;20044;-80
2022/11/25 02:35:47;;;;;;;6.05;2.65;;;4.50;99.90;;;;;;5061214;28;20032;-81
2022/11/25 02:38:21;;;;;;;15.10;2.97;;;4.40;99.90;;;;;;5062081;28;20529;-80
2022/11/25 02:41:10;;;;;;;12.45;2.88;;;4.40;99.90;;;;;;5059575;28;20029;-80
2022/11/25 02:43:36;;;;;;;10.07;3.28;;;4.40;99.90;;;;;;5059585;28;20021;-81
2022/11/25 02:46:08;;;;;;;14.35;4.22;;;4.40;99.90;;;;;;5058422;28;20443;-81
2022/11/25 02:48:36;;;;;;;7.88;2.42;;;4.20;99.90;;;;;;5063292;28;20195;-80
2022/11/25 02:51:02;;;;;;;12.55;2.67;;;4.20;99.90;;;;;;5065014;28;20035;-81
2022/11/25 02:53:28;;;;;;;10.10;3.05;;;4.10;99.90;;;;;;5062868;28;20028;-81
2022/11/25 02:55:53;;;;;;;14.13;3.22;;;4.10;99.90;;;;;;5062802;28;20499;-80
2022/11/25 02:58:20;;;;;;;18.73;3.47;;;4.10;99.90;;;;;;5060530;28;20131;-81
2022/11/25 03:00:45;;;;;;;13.68;5.30;;;4.00;99.90;;;;;;5060625;28;20071;-81
2022/11/25 03:03:12;;;;;;;17.00;5.93;;;4.00;99.90;;;;;;5062587;28;20021;-80
2022/11/25 03:05:38;;;;;;;27.25;7.00;;;4.00;99.90;;;;;;5060516;28;20024;-80
2022/11/25 03:08:07;;;;;;;32.28;6.80;;;4.00;99.90;;;;;;5060007;28;20527;-79
2022/11/25 03:10:34;;;;;;;25.23;5.32;;;4.20;99.90;;;;;;5065624;28;20035;-80
2022/11/25 03:12:59;;;;;;;32.58;7.15;;;4.40;99.90;;;;;;5060471;28;20025;-81
2022/11/25 03:15:25;;;;;;;37.22;6.53;;;4.80;99.90;;;;;;5061356;28;20184;-80
2022/11/25 03:17:51;;;;;;;34.28;5.65;;;5.20;99.90;;;;;;5061063;28;20413;-81
2022/11/25 03:20:17;;;;;;;20.48;5.35;;;5.40;99.90;;;;;;5061899;28;20522;-82
2022/11/25 03:22:43;;;;;;;20.15;4.80;;;5.70;99.90;;;;;;5059476;28;20029;-81
2022/11/25 03:25:11;;;;;;;23.17;4.53;;;5.90;99.90;;;;;;5066468;28;20090;-80
2022/11/25 03:27:37;;;;;;;36.05;5.47;;;6.00;99.90;;;;;;5064131;28;20111;-80
2022/11/25 03:30:05;;;;;;;30.52;5.20;;;6.20;99.90;;;;;;5064783;28;20028;-82
2022/11/25 03:32:31;;;;;;;30.80;5.05;;;6.30;99.90;;;;;;5056199;28;20024;-81
2022/11/25 03:34:56;;;;;;;33.67;5.40;;;6.40;99.90;;;;;;5059440;28;20025;-81
2022/11/25 03:37:22;;;;;;;26.67;7.13;;;6.50;99.90;;;;;;5058750;28;20090;-81
2022/11/25 03:39:48;;;;;;;20.58;4.00;;;6.50;99.90;;;;;;5061175;28;20024;-81
2022/11/25 03:42:13;;;;;;;43.28;5.97;;;6.50;99.90;;;;;;5062237;28;20554;-81
2022/11/25 03:44:40;;;;;;;26.55;5.28;;;6.50;99.90;;;;;;5064639;28;20048;-80
2022/11/25 03:47:05;;;;;;;28.33;5.45;;;6.50;99.90;;;;;;5064325;28;20481;-81
2022/11/25 03:49:31;;;;;;;32.40;6.35;;;6.50;99.90;;;;;;5066880;28;20028;-80
2022/11/25 03:51:57;;;;;;;14.40;4.10;;;6.50;99.90;;;;;;5063763;28;20036;-80
2022/11/25 03:54:23;;;;;;;25.50;5.93;;;6.50;99.90;;;;;;5061477;28;20091;-81
2022/11/25 03:56:51;;;;;;;20.20;4.45;;;6.40;99.90;;;;;;5059770;28;20477;-81
2022/11/25 03:59:17;;;;;;;26.38;4.35;;;6.40;99.90;;;;;;5065971;28;20043;-80
2022/11/25 04:01:42;;;;;;;18.83;4.57;;;6.40;99.90;;;;;;5060138;28;20103;-81
2022/11/25 04:04:09;;;;;;;36.05;5.22;;;6.40;99.90;;;;;;5057361;28;20361;-81
2022/11/25 04:06:34;;;;;;;22.13;4.43;;;6.40;99.90;;;;;;5062532;28;20123;-81
2022/11/25 04:09:00;;;;;;;23.35;5.07;;;6.40;99.90;;;;;;5058145;28;20520;-80
2022/11/25 04:12:45;;;;;;;33.65;6.60;;;6.50;99.90;;;;;;5059019;28;20433;-81
2022/11/25 04:14:12;;;;;;;29.52;5.53;;;6.50;99.90;;;;;;5061052;28;20437;-80
2022/11/25 04:16:37;;;;;;;23.33;4.82;;;6.50;99.90;;;;;;5060752;28;20070;-80
2022/11/25 04:19:03;;;;;;;27.50;4.40;;;6.50;99.90;;;;;;5062183;28;20045;-80
2022/11/25 04:21:29;;;;;;;29.38;4.22;;;6.60;99.90;;;;;;5053691;28;20053;-81
2022/11/25 04:23:55;;;;;;;21.70;4.45;;;6.60;99.90;;;;;;5061945;28;20106;-81
2022/11/25 04:26:21;;;;;;;16.00;3.58;;;6.60;99.90;;;;;;5055950;28;20482;-80
2022/11/25 04:28:46;;;;;;;24.98;4.97;;;6.60;99.90;;;;;;5063543;28;20103;-81
2022/11/25 04:31:12;;;;;;;40.60;5.57;;;6.70;99.90;;;;;;5057544;28;20020;-80
2022/11/25 04:33:37;;;;;;;15.90;3.95;;;6.70;99.90;;;;;;5061760;28;20381;-81
2022/11/25 04:36:03;;;;;;;24.92;4.07;;;6.70;99.90;;;;;;5060608;28;20040;-81
2022/11/25 04:38:29;;;;;;;27.05;4.13;;;6.70;99.90;;;;;;5059218;28;20266;-81
2022/11/25 04:40:54;;;;;;;27.02;4.95;;;6.70;99.90;;;;;;5058347;28;20063;-81
2022/11/25 04:43:20;;;;;;;26.65;4.47;;;6.80;99.90;;;;;;5056420;28;20123;-80
2022/11/25 04:45:47;;;;;;;20.88;4.07;;;6.70;99.90;;;;;;5057387;28;20047;-81
2022/11/25 04:48:13;;;;;;;21.13;3.90;;;6.70;99.90;;;;;;5063771;28;20107;-81
2022/11/25 04:50:38;;;;;;;25.92;4.60;;;6.80;99.90;;;;;;5056854;28;20096;-80
2022/11/25 04:53:04;;;;;;;26.60;4.97;;;6.70;99.90;;;;;;5057620;28;20047;-81
2022/11/25 04:55:29;;;;;;;32.60;5.18;;;6.80;99.90;;;;;;5053205;28;20032;-81
2022/11/25 04:57:55;;;;;;;26.65;5.30;;;6.70;99.90;;;;;;5055477;28;20060;-81
2022/11/25 05:00:22;;;;;;;32.42;5.43;;;6.70;99.90;;;;;;5061539;28;20503;-80
2022/11/25 05:02:48;;;;;;;30.50;4.47;;;6.70;99.90;;;;;;5054747;28;20063;-80
2022/11/25 05:05:13;;;;;;;32.30;4.40;;;6.70;99.90;;;;;;5058570;28;20060;-81
2022/11/25 05:07:39;;;;;;;27.38;4.43;;;6.70;99.90;;;;;;5052229;28;20021;-79
2022/11/25 05:10:06;;;;;;;27.90;4.55;;;6.70;99.90;;;;;;5051300;28;20020;-80
2022/11/25 05:12:32;;;;;;;30.98;5.55;;;6.70;99.90;;;;;;5056256;28;20086;-81
2022/11/25 05:14:57;;;;;;;22.88;4.43;;;6.60;99.90;;;;;;5055770;28;20029;-81
2022/11/25 05:17:28;;;;;;;32.28;4.53;;;6.60;99.90;;;;;;5058031;28;20125;-80
2022/11/25 05:19:54;;;;;;;31.30;4.78;;;6.60;99.90;;;;;;5048098;28;20089;-80
2022/11/25 05:22:26;;;;;;;24.02;4.78;;;6.60;99.90;;;;;;5052450;28;20036;-80
2022/11/25 05:24:52;;;;;;;20.88;3.97;;;6.50;99.90;;;;;;5054260;28;20082;-81
2022/11/25 05:27:18;;;;;;;27.05;4.57;;;6.50;99.90;;;;;;5056028;28;20033;-81
2022/11/25 05:29:44;;;;;;;22.10;4.90;;;6.50;99.90;;;;;;5059676;28;20038;-80
2022/11/25 05:32:10;;;;;;;20.10;4.32;;;6.40;99.90;;;;;;5051248;28;20509;-80
2022/11/25 05:34:36;;;;;;;25.77;4.60;;;6.40;99.90;;;;;;5057093;28;20056;-81
2022/11/25 05:37:02;;;;;;;24.08;4.10;;;6.40;99.90;;;;;;5057844;28;20060;-82
2022/11/25 05:39:28;;;;;;;19.65;4.63;;;6.40;99.90;;;;;;5054169;28;20462;-81
2022/11/25 05:41:53;;;;;;;25.50;4.85;;;6.30;99.90;;;;;;5053835;28;20040;-80
2022/11/25 05:44:19;;;;;;;35.88;5.28;;;6.40;99.90;;;;;;5056955;28;20024;-82
2022/11/25 05:46:46;;;;;;;40.45;7.75;;;6.30;99.90;;;;;;5057696;28;20020;-81
2022/11/25 05:49:12;;;;;;;27.83;4.32;;;6.30;99.90;;;;;;5053421;28;20039;-80
2022/11/25 05:51:38;;;;;;;30.45;6.18;;;6.30;99.90;;;;;;5061032;28;20523;-79
2022/11/25 05:54:04;;;;;;;27.20;5.15;;;6.30;99.90;;;;;;5055202;28;20024;-80
2022/11/25 05:56:29;;;;;;;27.08;5.43;;;6.40;99.90;;;;;;5060735;28;20108;-80
2022/11/25 05:58:57;;;;;;;31.83;4.82;;;6.40;99.90;;;;;;5053557;28;20052;-79
2022/11/25 06:01:23;;;;;;;34.03;5.38;;;6.40;99.90;;;;;;5057957;28;20041;-81
2022/11/25 06:03:48;;;;;;;18.98;3.83;;;6.40;99.90;;;;;;5061833;28;20043;-81
2022/11/25 06:06:14;;;;;;;23.73;4.47;;;6.50;99.90;;;;;;5054975;28;22816;-80
2022/11/25 06:08:40;;;;;;;12.60;3.35;;;6.50;99.90;;;;;;5051448;28;20025;-80
2022/11/25 06:11:11;;;;;;;22.25;4.30;;;6.50;99.90;;;;;;5063458;28;20112;-80
2022/11/25 06:13:38;;;;;;;21.05;4.35;;;6.60;99.90;;;;;;5056429;28;20032;-81
2022/11/25 06:16:15;;;;;;;21.13;3.50;;;6.70;99.90;;;;;;5057919;28;20039;-80
2022/11/25 06:18:41;;;;;;;22.52;4.25;;;6.80;99.90;;;;;;5057608;28;20060;-80
2022/11/25 06:21:08;;;;;;;21.42;4.65;;;6.80;99.90;;;;;;5055356;28;20057;-81
2022/11/25 06:23:34;;;;;;;26.48;4.95;;;6.90;99.90;;;;;;5056336;28;20025;-81
2022/11/25 06:26:25;;;;;;;22.90;3.65;;;6.90;99.90;;;;;;5061332;28;20098;-81
2022/11/25 06:28:53;;;;;;;26.60;3.70;;;6.90;99.90;;;;;;5051929;28;20043;-82
2022/11/25 06:31:21;;;;;;;34.03;6.45;;;6.90;99.90;;;;;;5056068;28;20039;-82
2022/11/25 06:33:49;;;;;;;14.63;4.00;;;6.90;99.90;;;;;;5049590;28;20035;-80
2022/11/25 06:36:18;;;;;;;17.15;3.90;;;6.90;99.90;;;;;;5054939;28;20026;-80
2022/11/25 06:38:47;;;;;;;22.73;3.30;;;6.90;99.90;;;;;;5055931;28;20033;-81
2022/11/25 06:41:13;;;;;;;23.55;3.65;;;6.90;99.90;;;;;;5054766;28;20109;-81
2022/11/25 06:43:39;;;;;;;24.08;4.35;;;7.00;99.90;;;;;;5055694;28;20107;-80
2022/11/25 06:46:10;;;;;;;24.23;4.20;;;7.00;99.90;;;;;;5055459;28;20040;-81
2022/11/25 06:48:36;;;;;;;25.23;3.25;;;7.00;99.90;;;;;;5052988;28;20033;-80
2022/11/25 06:51:08;;;;;;;22.23;6.22;;;7.10;99.90;;;;;;5052497;28;20031;-80
2022/11/25 06:53:34;;;;;;;33.72;5.20;;;7.10;99.90;;;;;;5055260;28;20036;-80
2022/11/25 06:56:24;;;;;;;17.70;4.50;;;7.20;99.90;;;;;;5058551;28;20107;-79
2022/11/25 06:58:52;;;;;;;22.27;3.28;;;7.20;99.90;;;;;;5058982;28;20475;-80
2022/11/25 07:01:19;;;;;;;12.90;3.17;;;7.20;99.90;;;;;;5059833;28;20393;-80
2022/11/25 07:03:46;;;;;;;19.35;5.20;;;7.20;99.90;;;;;;5056881;28;20032;-80
2022/11/25 07:06:14;;;;;;;25.00;4.63;;;7.20;99.90;;;;;;5063550;28;20108;-79
2022/11/25 07:08:40;;;;;;;26.30;3.97;;;7.20;99.90;;;;;;5057050;28;20029;-78
2022/11/25 07:11:12;;;;;;;13.70;3.05;;;7.30;99.90;;;;;;5059253;28;20024;-79
2022/11/25 07:13:38;;;;;;;26.25;4.28;;;7.20;99.90;;;;;;5063968;28;20440;-80
2022/11/25 07:16:05;;;;;;;12.93;3.55;;;7.30;99.90;;;;;;5055886;28;20025;-79
2022/11/25 07:18:33;;;;;;;22.05;4.45;;;7.30;99.90;;;;;;5061319;28;20446;-78
2022/11/25 07:21:06;;;;;;;15.27;3.25;;;7.20;99.90;;;;;;5056124;28;20040;-78
2022/11/25 07:23:35;;;;;;;14.02;2.80;;;7.10;99.90;;;;;;5065845;28;20082;-82
2022/11/25 07:26:06;;;;;;;16.92;3.35;;;7.00;99.90;;;;;;5057950;28;20033;-80
2022/11/25 07:28:33;;;;;;;19.13;3.35;;;7.10;99.90;;;;;;5058730;28;20049;-79
2022/11/25 07:31:13;;;;;;;15.23;3.50;;;7.00;99.90;;;;;;5055138;28;20572;-79
2022/11/25 07:33:38;;;;;;;20.38;3.78;;;7.00;99.90;;;;;;5054182;28;20037;-80
2022/11/25 07:36:06;;;;;;;22.40;3.75;;;7.00;99.90;;;;;;5054489;28;20550;-80
2022/11/25 07:38:32;;;;;;;23.92;4.05;;;6.90;99.90;;;;;;5061223;28;20078;-79
2022/11/25 07:41:07;;;;;;;19.73;3.05;;;7.00;99.90;;;;;;5066922;28;20052;-79
2022/11/25 07:43:33;;;;;;;20.35;4.10;;;7.00;99.90;;;;;;5061407;28;20358;-81
2022/11/25 07:46:25;;;;;;;23.90;3.53;;;7.10;99.90;;;;;;5062701;28;20033;-81
2022/11/25 07:48:52;;;;;;;13.52;3.38;;;7.10;99.90;;;;;;5060428;28;20033;-79
2022/11/25 07:51:22;;;;;;;19.58;3.50;;;7.10;99.90;;;;;;5055884;28;20500;-79
2022/11/25 07:53:49;;;;;;;20.65;3.75;;;7.20;99.90;;;;;;5057454;28;20381;-79
2022/11/25 07:56:15;;;;;;;13.80;3.55;;;7.10;99.90;;;;;;5058483;28;20467;-80
2022/11/25 07:58:41;;;;;;;14.82;3.08;;;7.20;99.90;;;;;;5065193;28;20091;-81
2022/11/25 08:01:10;;;;;;;11.15;3.30;;;7.30;99.90;;;;;;5057623;28;20052;-80
2022/11/25 08:03:37;;;;;;;20.50;3.65;;;7.30;99.90;;;;;;5060925;28;20025;-79
2022/11/25 08:06:04;;;;;;;18.05;3.15;;;7.40;99.90;;;;;;5055442;28;20534;-79
2022/11/25 08:08:34;;;;;;;23.98;4.88;;;7.30;99.90;;;;;;5064360;28;20028;-81
2022/11/25 08:11:00;;;;;;;33.78;3.78;;;7.40;99.90;;;;;;5061139;28;20029;-81
2022/11/25 08:13:26;;;;;;;18.08;3.72;;;7.40;99.90;;;;;;5060947;28;20024;-80
2022/11/25 08:15:52;;;;;;;18.73;4.35;;;7.40;99.90;;;;;;5059147;28;20029;-81
2022/11/25 08:18:18;;;;;;;14.77;2.70;;;7.40;99.90;;;;;;5057471;28;20504;-81
2022/11/25 08:20:46;;;;;;;25.80;3.55;;;7.40;99.90;;;;;;5064587;28;20040;-79
2022/11/25 08:23:12;;;;;;;22.90;3.60;;;7.50;99.90;;;;;;5063272;28;20032;-80
2022/11/25 08:25:42;;;;;;;25.67;4.85;;;7.40;99.90;;;;;;5058931;28;20492;-82
2022/11/25 08:28:08;;;;;;;21.20;4.28;;;7.50;99.90;;;;;;5059900;28;20025;-79
2022/11/25 08:30:34;;;;;;;22.63;3.40;;;7.50;99.90;;;;;;5056108;28;20036;-81
2022/11/25 08:33:00;;;;;;;19.80;4.55;;;7.40;99.90;;;;;;5060612;28;20115;-80
2022/11/25 08:35:26;;;;;;;8.10;2.95;;;7.50;99.90;;;;;;5054185;28;20029;-80
2022/11/25 08:37:52;;;;;;;20.10;3.10;;;7.40;99.90;;;;;;5057953;28;20044;-80
2022/11/25 08:40:18;;;;;;;13.23;2.60;;;7.40;99.90;;;;;;5059123;28;20095;-81
2022/11/25 08:42:43;;;;;;;22.42;3.25;;;7.40;99.90;;;;;;5067310;28;20070;-80
2022/11/25 08:45:10;;;;;;;20.67;2.95;;;7.40;99.90;;;;;;5066312;28;20012;-79
2022/11/25 08:47:36;;;;;;;22.83;3.78;;;7.40;99.90;;;;;;5056771;28;20033;-81
2022/11/25 08:50:07;;;;;;;23.15;5.05;;;7.40;99.90;;;;;;5053559;28;20035;-81
2022/11/25 08:52:33;;;;;;;14.23;2.72;;;7.40;99.90;;;;;;5060988;28;20028;-81
2022/11/25 08:55:00;;;;;;;24.50;3.92;;;7.40;99.90;;;;;;5060787;28;20044;-81
2022/11/25 08:57:26;;;;;;;20.40;4.22;;;7.40;99.90;;;;;;5058589;28;20392;-80
2022/11/25 08:59:51;;;;;;;16.83;3.25;;;7.40;99.90;;;;;;5060497;28;20111;-80
2022/11/25 09:02:17;;;;;;;24.08;4.82;;;7.40;99.90;;;;;;5060025;28;20381;-80
2022/11/25 09:04:43;;;;;;;13.80;2.92;;;7.40;99.90;;;;;;5054646;28;20033;-80
2022/11/25 09:07:09;;;;;;;16.83;3.35;;;7.40;99.90;;;;;;5061066;28;20031;-81
2022/11/25 09:09:35;;;;;;;14.30;3.15;;;7.50;99.90;;;;;;5052830;28;20029;-80
2022/11/25 09:12:00;;;;;;;23.10;4.63;;;7.50;99.90;;;;;;5058087;28;20110;-81
2022/11/25 09:14:26;;;;;;;11.98;2.85;;;7.50;99.90;;;;;;5058152;28;20031;-80
2022/11/25 09:16:51;;;;;;;14.65;3.80;;;7.60;99.90;;;;;;5057738;28;20088;-79
2022/11/25 09:19:19;;;;;;;17.85;2.88;;;7.60;99.90;;;;;;5057638;28;20473;-80
2022/11/25 09:21:44;;;;;;;16.88;4.07;;;7.60;99.90;;;;;;5061173;28;20036;-80
2022/11/25 09:24:10;;;;;;;20.90;3.70;;;7.60;99.90;;;;;;5057366;28;20368;-79
2022/11/25 09:26:38;;;;;;;17.48;3.17;;;7.60;99.90;;;;;;5061916;28;20032;-80
2022/11/25 09:29:07;;;;;;;24.27;5.75;;;7.70;99.90;;;;;;5061849;28;20112;-79
2022/11/25 09:31:33;;;;;;;15.18;3.17;;;7.70;99.90;;;;;;5053425;28;20024;-80
2022/11/25 09:33:59;;;;;;;19.80;3.75;;;7.80;99.90;;;;;;5063506;28;20036;-81
2022/11/25 09:36:24;;;;;;;22.75;3.75;;;7.80;99.90;;;;;;5059307;28;20407;-80
2022/11/25 09:38:50;;;;;;;17.30;3.53;;;7.90;99.90;;;;;;5059590;28;20451;-81
2022/11/25 09:48:02;;;;;;;23.88;3.40;;;8.20;99.90;;;;;;5059417;28;20064;-79
2022/11/25 09:50:42;;;;;;;21.45;3.33;;;8.20;99.90;;;;;;5056572;28;20033;-80
2022/11/25 09:53:07;;;;;;;17.58;2.88;;;8.30;99.90;;;;;;5052612;28;20053;-80
2022/11/25 09:55:41;;;;;;;24.45;4.18;;;8.40;99.90;;;;;;5061839;28;20063;-80
2022/11/25 09:58:21;;;;;;;19.48;3.15;;;8.30;99.90;;;;;;5055878;28;20088;-80
2022/11/25 10:00:49;;;;;;;15.93;3.70;;;8.40;99.90;;;;;;5054435;28;20068;-81
2022/11/25 10:03:43;;;;;;;26.35;4.05;;;8.50;99.90;;;;;;5063418;28;20029;-80
2022/11/25 10:06:25;;;;;;;12.93;3.47;;;8.50;99.90;;;;;;5055983;28;20025;-79
2022/11/25 10:08:57;;;;;;;16.88;3.35;;;8.50;99.90;;;;;;5063637;28;20500;-80
2022/11/25 10:11:50;;;;;;;16.35;3.30;;;8.60;99.90;;;;;;5060138;28;20032;-80
2022/11/25 10:14:48;;;;;;;16.95;3.35;;;8.60;99.90;;;;;;5062739;28;20132;-80
2022/11/25 10:17:31;;;;;;;10.60;2.70;;;8.70;99.90;;;;;;5056608;28;20046;-80
2022/11/25 10:20:07;;;;;;;17.98;3.95;;;8.70;99.90;;;;;;5057681;28;20546;-79
2022/11/25 10:22:34;;;;;;;;;;;8.70;99.90;;;;;;5060567;28;20024;-81
2022/11/25 10:25:25;;;;;;;8.98;2.78;;;8.60;99.90;;;;;;5056708;28;20397;-80
2022/11/25 10:28:01;;;;;;;13.68;2.45;;;8.70;99.90;;;;;;5055619;28;20032;-79
2022/11/25 10:30:37;;;;;;;25.58;4.45;;;8.70;99.90;;;;;;5061851;28;20029;-80
2022/11/25 10:33:19;;;;;;;12.57;2.70;;;8.70;99.90;;;;;;5054035;28;20029;-80
2022/11/25 10:35:53;;;;;;;14.38;3.42;;;8.70;99.90;;;;;;5058209;28;20105;-80
2022/11/25 10:38:46;;;;;;;13.88;2.90;;;8.80;99.90;;;;;;5055603;28;20057;-80
2022/11/25 10:41:17;;;;;;;18.23;3.13;;;8.80;99.90;;;;;;5053310;28;20041;-80
2022/11/25 10:43:45;;;;;;;10.25;2.22;;;8.80;99.90;;;;;;5058626;28;20045;-79
2022/11/25 10:46:49;;;;;;;11.45;2.65;;;8.80;99.90;;;;;;5065627;28;20036;-80
2022/11/25 10:49:26;;;;;;;18.60;3.67;;;8.90;99.90;;;;;;5058693;28;20250;-80
2022/11/25 10:51:53;;;;;;;9.90;2.30;;;8.90;99.90;;;;;;5067108;28;20502;-80
2022/11/25 10:54:24;;;;;;;12.60;2.65;;;8.90;99.90;;;;;;5063907;28;20036;-81
2022/11/25 10:56:56;;;;;;;11.63;2.90;;;8.90;99.90;;;;;;5059566;28;21059;-80
2022/11/25 10:59:34;;;;;;;25.35;5.43;;;8.90;99.90;;;;;;5060177;28;20071;-80
2022/11/25 11:02:14;;;;;;;16.15;3.00;;;9.00;99.90;;;;;;5063743;28;20135;-80
2022/11/25 11:05:00;;;;;;;10.77;3.13;;;9.00;99.90;;;;;;5068028;28;20021;-78
2022/11/25 11:07:27;;;;;;;;;;;8.90;99.90;;;;;;5067233;28;20032;-79
2022/11/25 11:09:53;;;;;;;16.83;3.67;;;9.00;99.90;;;;;;5061934;28;19934;-79
2022/11/25 11:12:26;;;;;;;22.10;3.55;;;8.90;99.90;;;;;;5062172;28;20256;-79
2022/11/25 11:15:13;;;;;;;17.05;2.95;;;8.90;99.90;;;;;;5066578;28;20032;-79
2022/11/25 11:17:39;;;;;;;19.90;2.75;;;8.90;99.90;;;;;;5064895;28;20037;-79
2022/11/25 11:20:07;;;;;;;23.02;2.97;;;8.90;99.90;;;;;;5062554;28;20418;-79
2022/11/25 11:22:34;;;;;;;14.82;3.00;;;9.00;99.90;;;;;;5053262;28;20082;-80
2022/11/25 11:25:07;;;;;;;12.27;2.38;;;9.00;99.90;;;;;;5058768;28;20063;-80
2022/11/25 11:27:37;;;;;;;13.65;2.55;;;9.00;99.90;;;;;;5054627;28;20036;-80
2022/11/25 11:30:13;;;;;;;5.47;2.08;;;9.00;99.90;;;;;;5055341;28;20154;-80
2022/11/25 11:32:43;;;;;;;7.40;2.53;;;8.90;99.90;;;;;;5056953;28;20386;-79
2022/11/25 11:35:24;;;;;;;12.70;2.33;;;8.90;99.90;;;;;;5060378;28;20033;-80
2022/11/25 11:38:22;;;;;;;13.30;2.72;;;8.90;99.90;;;;;;5059369;28;20098;-79
2022/11/25 11:41:20;;;;;;;15.77;3.53;;;8.90;99.90;;;;;;5049836;28;20037;-80
2022/11/25 11:43:57;;;;;;;13.65;2.65;;;8.90;99.90;;;;;;5064070;28;20179;-79
2022/11/25 11:46:29;;;;;;;24.33;4.07;;;8.80;99.90;;;;;;5061952;28;20029;-80
2022/11/25 11:49:04;;;;;;;14.23;3.38;;;8.80;99.90;;;;;;5062398;28;20478;-79
2022/11/25 11:51:59;;;;;;;8.93;2.75;;;8.80;99.90;;;;;;5059705;28;20029;-80
2022/11/25 11:54:32;;;;;;;14.32;2.95;;;8.80;99.90;;;;;;5065690;28;20116;-79
2022/11/25 11:57:27;;;;;;;18.58;4.40;;;8.70;99.90;;;;;;5056302;28;20131;-79
2022/11/25 12:00:05;;;;;;;15.50;3.22;;;8.80;99.90;;;;;;5052792;28;20052;-79
2022/11/25 12:02:53;;;;;;;17.48;2.83;;;8.80;99.90;;;;;;5064099;28;20020;-79
2022/11/25 12:05:23;;;;;;;19.80;4.30;;;8.70;99.90;;;;;;5058464;28;20028;-79
2022/11/25 12:07:48;;;;;;;31.65;10.30;;;8.70;99.90;;;;;;5057583;28;20036;-79
2022/11/25 12:10:14;;;;;;;23.70;5.05;;;8.70;99.90;;;;;;5056949;28;20039;-79
2022/11/25 12:12:48;;;;;;;12.07;3.42;;;8.70;99.90;;;;;;5063146;28;20029;-80
2022/11/25 12:15:42;;;;;;;10.82;3.65;;;8.70;99.90;;;;;;5064149;28;20035;-79
2022/11/25 12:18:25;;;;;;;18.05;4.45;;;8.70;99.90;;;;;;5054876;28;20461;-79
2022/11/25 12:21:03;;;;;;;12.38;2.70;;;8.60;99.90;;;;;;5054925;28;20035;-80
2022/11/25 12:24:02;;;;;;;18.70;3.35;;;8.60;99.90;;;;;;5052752;28;20496;-80
2022/11/25 12:27:04;;;;;;;13.73;3.47;;;8.60;99.90;;;;;;5065459;28;20111;-79
2022/11/25 12:29:48;;;;;;;15.40;2.75;;;8.60;99.90;;;;;;5059505;28;20072;-80
2022/11/25 12:32:32;;;;;;;12.10;2.92;;;8.60;99.90;;;;;;5066069;28;20127;-79
2022/11/25 12:35:21;;;;;;;12.90;2.90;;;8.60;99.90;;;;;;5058154;28;20024;-80
2022/11/25 12:38:17;;;;;;;14.07;2.55;;;8.60;99.90;;;;;;5038315;28;20505;-79
2022/11/25 12:40:55;;;;;;;14.13;3.50;;;8.60;99.90;;;;;;5056796;28;20119;-79
2022/11/25 12:43:24;;;;;;;11.85;3.10;;;8.50;99.90;;;;;;5056506;28;20033;-79
2022/11/25 12:46:02;;;;;;;18.10;3.55;;;8.50;99.90;;;;;;5056404;28;20706;-80
2022/11/25 12:48:27;;;;;;;13.73;2.88;;;8.60;99.90;;;;;;5064640;28;20028;-79
2022/11/25 12:51:12;;;;;;;13.15;3.00;;;8.50;99.90;;;;;;5058865;28;20029;-79
2022/11/25 12:53:37;;;;;;;12.65;2.88;;;8.50;99.90;;;;;;5052767;28;20027;-80
2022/11/25 12:56:10;;;;;;;9.07;2.35;;;8.40;99.90;;;;;;5058167;28;20036;-80
2022/11/25 12:59:08;;;;;;;10.15;2.58;;;8.40;99.90;;;;;;5056374;28;20071;-80
2022/11/25 13:01:46;;;;;;;14.05;2.67;;;8.30;99.90;;;;;;5057470;28;20119;-79
2022/11/25 13:04:45;;;;;;;13.45;3.50;;;8.30;99.90;;;;;;5057328;28;20473;-79
2022/11/25 13:07:11;;;;;;;19.10;4.00;;;8.30;99.90;;;;;;5057331;28;20123;-79
2022/11/25 13:10:00;;;;;;;16.13;3.20;;;8.30;99.90;;;;;;5065503;28;20108;-79
2022/11/25 13:12:49;;;;;;;10.38;3.33;;;8.30;99.90;;;;;;5061556;28;20543;-79
2022/11/25 13:15:40;;;;;;;15.80;3.85;;;8.30;99.90;;;;;;5065889;28;20040;-78
2022/11/25 13:18:16;;;;;;;8.65;3.15;;;8.30;99.90;;;;;;5058943;28;20059;-79